Time;durP1;ratioP1;P1;durP2;ratioP2;P2;SDS_P1;SDS_P2;PMS_P1;PMS_P2;Temp;Humidity;BMP_temperature;BMP_pressure;BME280_temperature;BME280_humidity;BME280_pressure;Samples;Min_cycle;Max_cycle;Signal;HPM_P1;HPM_P2
2021/12/11 00:00:39;;;;;;;29.88;15.07;;;;;;;;;;5036414;28;20049;-67
2021/12/11 00:03:32;;;;;;;29.92;14.25;;;;;;;;;;5036094;28;20088;-67
2021/12/11 00:06:05;;;;;;;26.92;14.55;;;;;;;;;;5034477;28;20061;-67
2021/12/11 00:08:32;;;;;;;31.95;16.08;;;;;;;;;;5036256;28;20128;-67
2021/12/11 00:11:07;;;;;;;33.20;17.15;;;;;;;;;;5036140;28;20042;-67
2021/12/11 00:13:36;;;;;;;36.50;16.40;;;;;;;;;;5036162;28;20075;-67
2021/12/11 00:16:04;;;;;;;32.35;15.93;;;;;;;;;;5035784;28;20049;-67
2021/12/11 00:18:31;;;;;;;30.98;12.90;;;;;;;;;;5035739;28;20501;-68
2021/12/11 00:21:08;;;;;;;28.35;13.30;;;;;;;;;;5035974;28;20049;-67
2021/12/11 00:23:49;;;;;;;29.83;14.95;;;;;;;;;;5035981;28;20084;-67
2021/12/11 00:26:22;;;;;;;34.45;16.67;;;;;;;;;;5035662;28;20486;-68
2021/12/11 00:28:50;;;;;;;38.20;16.33;;;;;;;;;;5035517;28;20187;-68
2021/12/11 00:31:17;;;;;;;34.28;16.67;;;;;;;;;;5034524;28;20064;-67
2021/12/11 00:33:43;;;;;;;35.13;17.45;;;;;;;;;;5035823;28;20195;-67
2021/12/11 00:36:12;;;;;;;33.90;17.27;;;;;;;;;;5035582;28;20069;-67
2021/12/11 00:38:39;;;;;;;33.15;16.83;;;;;;;;;;5034555;28;20084;-68
2021/12/11 00:41:07;;;;;;;23.55;14.45;;;;;;;;;;5035652;28;20048;-67
2021/12/11 00:43:35;;;;;;;31.35;14.23;;;;;;;;;;5035602;28;20045;-67
2021/12/11 00:46:04;;;;;;;30.15;14.95;;;;;;;;;;5035255;28;20041;-67
2021/12/11 00:48:30;;;;;;;39.60;17.00;;;;;;;;;;5035483;28;20048;-69
2021/12/11 00:51:03;;;;;;;34.30;17.08;;;;;;;;;;5035454;28;20053;-68
2021/12/11 00:53:36;;;;;;;33.25;16.38;;;;;;;;;;5035495;28;20049;-67
2021/12/11 00:56:23;;;;;;;36.38;17.13;;;;;;;;;;5035338;28;20429;-68
2021/12/11 00:58:50;;;;;;;32.95;16.70;;;;;;;;;;5035324;28;20054;-68
2021/12/11 01:01:19;;;;;;;30.73;14.32;;;;;;;;;;5034948;28;20063;-68
2021/12/11 01:03:47;;;;;;;28.17;14.63;;;;;;;;;;5035245;28;20049;-68
2021/12/11 01:06:18;;;;;;;36.70;16.45;;;;;;;;;;5035200;28;20041;-68
2021/12/11 01:08:47;;;;;;;33.08;15.77;;;;;;;;;;5034657;28;20057;-67
2021/12/11 01:11:16;;;;;;;32.13;16.67;;;;;;;;;;5035097;28;20050;-68
2021/12/11 01:13:45;;;;;;;34.38;16.60;;;;;;;;;;5035038;28;20053;-68
2021/12/11 01:16:14;;;;;;;43.85;18.10;;;;;;;;;;5034708;28;20386;-68
2021/12/11 01:18:42;;;;;;;44.55;18.55;;;;;;;;;;5034873;28;20053;-68
2021/12/11 01:21:33;;;;;;;35.53;17.83;;;;;;;;;;5034891;28;20052;-68
2021/12/11 01:26:31;;;;;;;44.35;18.98;;;;;;;;;;5034583;28;20496;-68
2021/12/11 01:28:57;;;;;;;47.25;21.45;;;;;;;;;;5034500;28;20381;-68
2021/12/11 01:31:24;;;;;;;52.42;22.20;;;;;;;;;;5034761;28;20096;-68
2021/12/11 01:33:51;;;;;;;56.85;22.95;;;;;;;;;;5033737;28;20477;-68
2021/12/11 01:36:17;;;;;;;40.92;20.67;;;;;;;;;;5034152;28;20061;-68
2021/12/11 01:38:43;;;;;;;44.72;20.85;;;;;;;;;;5034597;28;20413;-68
2021/12/11 01:41:12;;;;;;;;;;;-0.90;99.90;;;;;;5033996;28;20042;-68
2021/12/11 01:43:40;;;;;;;40.15;19.98;;;;;;;;;;5034203;28;19920;-68
2021/12/11 01:46:08;;;;;;;39.55;18.25;;;;;;;;;;5034414;28;20060;-68
2021/12/11 01:48:40;;;;;;;30.38;16.17;;;;;;;;;;5033324;28;20045;-68
2021/12/11 01:51:20;;;;;;;33.95;17.25;;;;;;;;;;5034345;28;20163;-69
2021/12/11 01:53:52;;;;;;;40.65;20.17;;;;;;;;;;5034281;28;20060;-68
2021/12/11 01:56:22;;;;;;;48.55;19.45;;;;;;;;;;5034267;28;20385;-68
2021/12/11 01:58:56;;;;;;;51.45;21.63;;;;;;;;;;5034024;28;20057;-68
2021/12/11 02:01:31;;;;;;;49.38;23.40;;;;;;;;;;5034282;28;20126;-68
2021/12/11 02:03:58;;;;;;;168.05;25.00;;;;;;;;;;5034120;28;20048;-68
2021/12/11 02:06:24;;;;;;;;;;;;;;;;;;5034512;28;20132;-68
2021/12/11 02:08:50;;;;;;;57.72;21.77;;;;;;;;;;5034028;28;20003;-68
2021/12/11 02:11:18;;;;;;;60.28;23.40;;;;;;;;;;5033639;28;20454;-69
2021/12/11 02:14:12;;;;;;;54.72;24.20;;;;;;;;;;5032686;28;20071;-68
2021/12/11 02:16:45;;;;;;;53.58;24.75;;;;;;;;;;5032100;28;20057;-68
2021/12/11 02:19:32;;;;;;;69.07;26.25;;;;;;;;;;5033286;28;20057;-67
2021/12/11 02:22:01;;;;;;;63.70;26.88;;;;;;;;;;5033738;28;20096;-67
2021/12/11 02:24:33;;;;;;;51.03;23.60;;;;;;;;;;5033694;28;20394;-68
2021/12/11 02:27:00;;;;;;;52.90;25.25;;;;;;;;;;5032045;28;20490;-68
2021/12/11 02:29:36;;;;;;;49.40;22.23;;;;;;;;;;5033578;28;20425;-69
2021/12/11 02:32:08;;;;;;;48.65;21.42;;;;;;;;;;5033644;28;20056;-68
2021/12/11 02:34:34;;;;;;;40.97;20.92;;;;;;;;;;5033556;28;20041;-68
2021/12/11 02:37:11;;;;;;;37.10;19.00;;;;;;;;;;5032871;28;20053;-67
2021/12/11 02:39:37;;;;;;;47.13;22.05;;;;;;;;;;5033078;28;20489;-68
2021/12/11 02:42:22;;;;;;;46.70;23.48;;;;;;;;;;5033095;28;20049;-68
2021/12/11 02:44:53;;;;;;;39.92;21.45;;;;;;;;;;5033301;28;20057;-68
2021/12/11 02:47:22;;;;;;;41.55;19.60;;;;;;;;;;5033313;28;20052;-67
2021/12/11 02:49:54;;;;;;;33.03;17.60;;;;;;;;;;5033229;28;20413;-67
2021/12/11 02:52:23;;;;;;;31.42;17.20;;;;;;;;;;5032145;28;20422;-67
2021/12/11 02:55:01;;;;;;;30.52;16.17;;;;;;;;;;5033132;28;20468;-67
2021/12/11 02:57:32;;;;;;;38.80;20.33;;;;;;;;;;5032853;28;20061;-68
2021/12/11 03:00:06;;;;;;;51.10;22.33;;;;;;;;;;5033140;28;20394;-68
2021/12/11 03:02:35;;;;;;;52.38;22.60;;;;;;;;;;5033083;28;20049;-68
2021/12/11 03:05:09;;;;;;;46.15;22.92;;;;;;;;;;5032990;28;20050;-67
2021/12/11 03:07:38;;;;;;;48.70;24.20;;;;;;;;;;5032998;28;20386;-67
2021/12/11 03:10:10;;;;;;;52.90;24.35;;;;;;;;;;5032323;28;20536;-67
2021/12/11 03:12:36;;;;;;;55.92;26.15;;;;;;;;;;5032947;28;20413;-67
2021/12/11 03:15:05;;;;;;;69.05;28.98;;;;;;;;;;5032784;28;20097;-67
2021/12/11 03:17:31;;;;;;;73.82;30.52;;;;;;;;;;5032885;28;20053;-67
2021/12/11 03:19:57;;;;;;;73.63;29.33;;;;;;;;;;5031629;28;20123;-70
2021/12/11 03:22:27;;;;;;;70.63;27.35;;;;;;;;;;5032802;28;20045;-67
2021/12/11 03:24:53;;;;;;;63.28;27.90;;;;;;;;;;5031513;28;20050;-67
2021/12/11 03:27:19;;;;;;;59.03;26.33;;;;;;;;;;5032731;28;20132;-67
2021/12/11 03:29:46;;;;;;;64.40;26.27;;;;;;;;;;5032781;28;20091;-67
2021/12/11 03:32:12;;;;;;;73.10;27.77;;;;;;;;;;5032477;28;20050;-67
2021/12/11 03:34:39;;;;;;;62.10;28.15;;;;;;;;;;5032567;28;20052;-67
2021/12/11 03:37:06;;;;;;;67.40;28.48;;;;;;;;;;5032522;28;20112;-67
2021/12/11 03:39:38;;;;;;;79.95;30.35;;;;;;;;;;5032390;28;20233;-68
2021/12/11 03:42:07;;;;;;;78.45;31.40;;;;;;;;;;5032599;28;20052;-67
2021/12/11 03:44:33;;;;;;;76.15;31.00;;;;;;;;;;5032468;28;20053;-67
2021/12/11 03:47:02;;;;;;;80.85;30.80;;;;;;;;;;5032559;28;20049;-67
2021/12/11 03:49:28;;;;;;;78.80;31.98;;;;;;;;;;5032584;28;20091;-67
2021/12/11 03:51:55;;;;;;;74.00;32.58;;;;;;;;;;5031286;28;20098;-67
2021/12/11 03:54:27;;;;;;;78.25;31.73;;;;;;;;;;5032204;28;20504;-67
2021/12/11 03:56:54;;;;;;;78.15;30.85;;;;;;;;;;5032350;28;20553;-67
2021/12/11 03:59:20;;;;;;;77.05;30.92;;;;;;;;;;5032426;28;20049;-67
2021/12/11 04:01:49;;;;;;;82.20;31.90;;;;;;;;;;5032441;28;20053;-66
2021/12/11 04:04:21;;;;;;;85.20;32.25;;;;;;;;;;5032360;28;20099;-67
2021/12/11 04:06:48;;;;;;;70.38;29.17;;;;;;;;;;5032292;28;20073;-67
2021/12/11 04:09:15;;;;;;;81.55;30.88;;;;;;;;;;5031101;28;20104;-67
2021/12/11 04:11:42;;;;;;;71.75;30.33;;;;;;;;;;5032314;28;20049;-66
2021/12/11 04:14:13;;;;;;;81.72;32.33;;;;;;;;;;5031973;28;20584;-69
2021/12/11 04:16:40;;;;;;;55.78;25.65;;;;;;;;;;5032288;28;20081;-66
2021/12/11 04:19:08;;;;;;;57.50;27.23;;;;;;;;;;5032339;28;20052;-67
2021/12/11 04:21:36;;;;;;;58.28;25.48;;;;;;;;;;5032241;28;20049;-67
2021/12/11 04:24:03;;;;;;;60.50;26.92;;;;;;;;;;5030683;28;20398;-66
2021/12/11 04:26:29;;;;;;;47.35;23.25;;;;;;;;;;5032218;28;20390;-67
2021/12/11 04:28:55;;;;;;;49.92;25.05;;;;;;;;;;5032188;28;20049;-66
2021/12/11 04:31:24;;;;;;;52.38;25.30;;;;;;;;;;5032152;28;20041;-66
2021/12/11 04:33:52;;;;;;;51.25;26.17;;;;;;;;;;5032101;28;20128;-66
2021/12/11 04:36:21;;;;;;;55.15;25.50;;;;;;;;;;5031863;28;20066;-66
2021/12/11 04:38:48;;;;;;;55.92;25.48;;;;;;;;;;5031815;28;20168;-66
2021/12/11 04:41:18;;;;;;;65.57;27.63;;;;;;;;;;5032068;28;20049;-66
2021/12/11 04:43:44;;;;;;;50.28;24.55;;;;;;;;;;5034117;28;20076;-66
2021/12/11 04:46:12;;;;;;;;;;;-0.90;99.90;;;;;;5036075;28;20083;-66
2021/12/11 04:51:26;;;;;;;42.58;21.98;;;;;;;;;;5035552;28;20057;-66
2021/12/11 05:04:53;;;;;;;57.58;28.30;;;;;;;;;;5035279;28;20474;-66
2021/12/11 05:07:20;;;;;;;60.78;27.63;;;;;;;;;;5034705;28;20057;-66
2021/12/11 05:09:55;;;;;;;64.75;27.55;;;;;;;;;;5035254;28;20559;-66
2021/12/11 05:14:50;;;;;;;59.67;25.92;;;;;;;;;;5035098;28;20049;-66
2021/12/11 05:17:17;;;;;;;52.97;26.50;;;;;;;;;;5034996;28;20049;-65
2021/12/11 05:19:45;;;;;;;51.45;24.52;;;;;;;;;;5035027;28;20045;-66
2021/12/11 05:22:12;;;;;;;52.40;25.50;;;;;;;;;;5033520;28;20051;-65
2021/12/11 05:24:39;;;;;;;;;;;-1.40;99.90;;;;;;5035372;28;20050;-66
2021/12/11 05:27:05;;;;;;;52.42;25.00;;;;;;;;;;5033915;28;20257;-66
2021/12/11 05:29:31;;;;;;;49.92;23.67;;;;;;;;;;5034840;28;20045;-65
2021/12/11 05:31:57;;;;;;;50.83;24.85;;;;;;;;;;5034819;28;20099;-66
2021/12/11 05:34:23;;;;;;;49.20;23.80;;;;;;;;;;5033761;28;20084;-65
2021/12/11 05:36:50;;;;;;;52.10;26.17;;;;;;;;;;5034260;28;20148;-66
2021/12/11 05:39:16;;;;;;;;;;;;;;;;;;5035114;28;20049;-66
2021/12/11 05:41:43;;;;;;;60.85;27.42;;;;;;;;;;5033372;28;19921;-66
2021/12/11 05:44:10;;;;;;;65.47;27.48;;;;;;;;;;5034231;28;20572;-67
2021/12/11 05:46:36;;;;;;;57.60;26.67;;;;;;;;;;5034464;28;20064;-66
2021/12/11 05:49:04;;;;;;;61.50;26.80;;;;;;;;;;5033264;28;20056;-66
2021/12/11 05:51:37;;;;;;;55.38;26.75;;;;;;;;;;5034162;28;20056;-66
2021/12/11 05:54:03;;;;;;;50.90;24.55;;;;;;;;;;5034494;28;20053;-65
2021/12/11 05:56:34;;;;;;;58.90;26.73;;;;;;;;;;5034409;28;20098;-66
2021/12/11 05:59:01;;;;;;;62.17;28.63;;;;;;;;;;5034396;28;20053;-66
2021/12/11 06:01:32;;;;;;;60.83;27.10;;;;;;;;;;5034275;28;20053;-66
2021/12/11 06:04:00;;;;;;;62.88;30.13;;;;;;;;;;5034064;28;20083;-65
2021/12/11 06:06:26;;;;;;;69.00;30.88;;;;;;;;;;5034102;28;20076;-65
2021/12/11 06:08:52;;;;;;;67.45;29.13;;;;;;;;;;5034170;28;20049;-65
2021/12/11 06:11:19;;;;;;;63.00;30.13;;;;;;;;;;5034094;28;20071;-65
2021/12/11 06:13:45;;;;;;;;;;;;;;;;;;5034156;28;20053;-66
2021/12/11 06:16:11;;;;;;;61.55;25.40;;;;;;;;;;5032780;28;19983;-66
2021/12/11 06:18:37;;;;;;;55.15;24.85;;;;;;;;;;5033647;28;20050;-65
2021/12/11 06:21:03;;;;;;;54.70;26.42;;;;;;;;;;5033859;28;20064;-65
2021/12/11 06:23:29;;;;;;;71.38;28.80;;;;;;;;;;5033807;28;20049;-66
2021/12/11 06:25:56;;;;;;;69.72;31.48;;;;;;;;;;5033816;28;20048;-65
2021/12/11 06:28:24;;;;;;;;;;;-1.20;99.90;;;;;;5034148;28;20057;-65
2021/12/11 06:30:49;;;;;;;;;;;;;;;;;;5034161;28;19929;-66
2021/12/11 06:33:16;;;;;;;64.85;28.58;;;;;;;;;;5033392;28;19928;-65
2021/12/11 06:35:48;;;;;;;59.97;27.65;;;;;;;;;;5032484;28;20084;-65
2021/12/11 06:38:16;;;;;;;57.25;27.88;;;;;;;;;;5033090;28;20053;-65
2021/12/11 06:40:42;;;;;;;65.50;28.65;;;;;;;;;;5033535;28;20409;-65
2021/12/11 06:43:08;;;;;;;58.05;27.45;;;;;;;;;;5033458;28;20049;-65
2021/12/11 06:45:34;;;;;;;58.17;27.25;;;;;;;;;;5032335;28;20560;-65
2021/12/11 06:48:00;;;;;;;60.67;28.23;;;;;;;;;;5033096;28;20087;-65
2021/12/11 06:50:26;;;;;;;56.83;26.98;;;;;;;;;;5033296;28;20425;-65
2021/12/11 06:52:53;;;;;;;54.58;27.08;;;;;;;;;;5033340;28;20456;-65
2021/12/11 06:55:20;;;;;;;54.80;26.08;;;;;;;;;;5033168;28;20049;-65
2021/12/11 06:57:46;;;;;;;49.63;26.30;;;;;;;;;;5033201;28;20049;-65
2021/12/11 07:00:14;;;;;;;53.33;25.55;;;;;;;;;;5032902;28;20535;-65
2021/12/11 07:02:40;;;;;;;49.22;24.85;;;;;;;;;;5032822;28;20052;-66
2021/12/11 07:05:06;;;;;;;54.25;26.40;;;;;;;;;;5032944;28;20517;-65
2021/12/11 07:07:34;;;;;;;;;;;-1.10;99.90;;;;;;5033311;28;20045;-65
2021/12/11 07:10:01;;;;;;;51.92;24.58;;;;;;;;;;5032898;28;19929;-65
2021/12/11 07:12:27;;;;;;;57.03;26.50;;;;;;;;;;5032053;28;20053;-71
2021/12/11 07:14:53;;;;;;;62.40;28.15;;;;;;;;;;5027619;28;20041;-65
2021/12/11 07:17:20;;;;;;;57.80;27.42;;;;;;;;;;5044403;28;20373;-65
2021/12/11 07:19:47;;;;;;;63.85;28.52;;;;;;;;;;5047850;28;20353;-65
2021/12/11 07:22:14;;;;;;;56.53;27.65;;;;;;;;;;5047312;28;20374;-65
2021/12/11 07:24:42;;;;;;;66.28;29.20;;;;;;;;;;5039489;28;20061;-66
2021/12/11 07:27:10;;;;;;;64.13;28.00;;;;;;;;;;5046290;28;20086;-65
2021/12/11 07:29:36;;;;;;;53.05;26.40;;;;;;;;;;5047023;28;20055;-65
2021/12/11 07:32:03;;;;;;;55.28;26.42;;;;;;;;;;5047919;28;20049;-65
2021/12/11 07:34:29;;;;;;;68.07;28.50;;;;;;;;;;5040236;28;20069;-64
2021/12/11 07:36:56;;;;;;;55.78;26.50;;;;;;;;;;5045791;28;20140;-65
2021/12/11 07:39:22;;;;;;;63.33;27.70;;;;;;;;;;5048016;28;20086;-67
2021/12/11 07:41:49;;;;;;;58.15;26.88;;;;;;;;;;5047273;28;20052;-65
2021/12/11 07:44:16;;;;;;;56.33;27.15;;;;;;;;;;5043140;28;20052;-67
2021/12/11 07:46:42;;;;;;;58.47;27.75;;;;;;;;;;5044202;28;20405;-65
2021/12/11 07:49:09;;;;;;;60.95;27.75;;;;;;;;;;5045387;28;20053;-65
2021/12/11 07:51:36;;;;;;;60.85;27.38;;;;;;;;;;5029946;28;20076;-63
2021/12/11 07:54:02;;;;;;;58.97;28.05;;;;;;;;;;5046606;28;20197;-64
2021/12/11 07:56:28;;;;;;;54.80;28.00;;;;;;;;;;5041319;28;20041;-63
2021/12/11 07:58:57;;;;;;;56.75;27.05;;;;;;;;;;5046195;28;20504;-63
2021/12/11 08:01:23;;;;;;;64.18;29.60;;;;;;;;;;5046733;28;20095;-63
2021/12/11 08:03:50;;;;;;;58.70;28.42;;;;;;;;;;5046533;28;20388;-63
2021/12/11 08:06:16;;;;;;;59.05;27.63;;;;;;;;;;5042598;28;20148;-64
2021/12/11 08:08:43;;;;;;;56.45;27.30;;;;;;;;;;5045972;28;20516;-64
2021/12/11 08:11:13;;;;;;;61.67;27.98;;;;;;;;;;5047309;28;20049;-63
2021/12/11 08:13:44;;;;;;;60.20;27.63;;;;;;;;;;5047444;28;20052;-64
2021/12/11 08:16:11;;;;;;;61.50;27.30;;;;;;;;;;5039780;28;20489;-63
2021/12/11 08:18:37;;;;;;;65.80;28.92;;;;;;;;;;5044480;28;20045;-63
2021/12/11 08:21:03;;;;;;;59.70;28.38;;;;;;;;;;5036115;28;20552;-63
2021/12/11 08:23:29;;;;;;;62.88;29.20;;;;;;;;;;5035948;28;20052;-63
2021/12/11 08:25:58;;;;;;;57.78;27.75;;;;;;;;;;5035882;28;20041;-63
2021/12/11 08:28:25;;;;;;;72.28;30.98;;;;;;;;;;5035620;28;20049;-63
2021/12/11 08:30:52;;;;;;;59.05;28.80;;;;;;;;;;5035650;28;20049;-64
2021/12/11 08:33:19;;;;;;;62.97;28.98;;;;;;;;;;5035955;28;20095;-63
2021/12/11 08:35:45;;;;;;;68.53;29.50;;;;;;;;;;5035746;28;20045;-63
2021/12/11 08:38:12;;;;;;;76.03;32.40;;;;;;;;;;5035830;28;20061;-63
2021/12/11 08:40:40;;;;;;;69.53;33.10;;;;;;;;;;5034598;28;20052;-63
2021/12/11 08:43:08;;;;;;;79.18;34.10;;;;;;;;;;5034382;28;20421;-64
2021/12/11 08:45:45;;;;;;;69.13;32.53;;;;;;;;;;5035405;28;20045;-63
2021/12/11 08:48:16;;;;;;;79.22;32.25;;;;;;;;;;5035676;28;20057;-64
2021/12/11 08:50:43;;;;;;;76.00;33.00;;;;;;;;;;5035263;28;20501;-63
2021/12/11 08:53:09;;;;;;;76.30;32.38;;;;;;;;;;5035607;28;20091;-63
2021/12/11 08:55:43;;;;;;;82.28;32.90;;;;;;;;;;5035450;28;20052;-63
2021/12/11 08:58:11;;;;;;;74.80;32.53;;;;;;;;;;5035199;28;20042;-63
2021/12/11 09:00:46;;;;;;;80.60;32.90;;;;;;;;;;5035359;28;20053;-63
2021/12/11 09:03:15;;;;;;;86.43;36.92;;;;;;;;;;5035435;28;20049;-64
2021/12/11 09:05:47;;;;;;;80.28;34.72;;;;;;;;;;5035013;28;20627;-64
2021/12/11 09:08:16;;;;;;;78.00;36.38;;;;;;;;;;5035307;28;20103;-63
2021/12/11 09:10:48;;;;;;;79.85;37.00;;;;;;;;;;5034852;28;20053;-64
2021/12/11 09:13:14;;;;;;;82.00;36.60;;;;;;;;;;5034893;28;20045;-63
2021/12/11 09:16:00;;;;;;;75.18;36.22;;;;;;;;;;5035038;28;20052;-63
2021/12/11 09:18:29;;;;;;;84.97;38.30;;;;;;;;;;5034493;28;20518;-65
2021/12/11 09:20:55;;;;;;;84.25;37.28;;;;;;;;;;5034987;28;20057;-64
2021/12/11 09:23:41;;;;;;;92.70;37.63;;;;;;;;;;5035015;28;20052;-63
2021/12/11 09:26:08;;;;;;;77.70;36.00;;;;;;;;;;5034000;28;20087;-64
2021/12/11 09:28:52;;;;;;;82.78;34.10;;;;;;;;;;5034256;28;20053;-63
2021/12/11 09:31:29;;;;;;;82.38;34.97;;;;;;;;;;5034830;28;20549;-63
2021/12/11 09:34:06;;;;;;;78.28;34.30;;;;;;;;;;5034834;28;20081;-64
2021/12/11 09:36:35;;;;;;;75.93;34.63;;;;;;;;;;5034540;28;20058;-64
2021/12/11 09:39:06;;;;;;;71.60;32.03;;;;;;;;;;5034761;28;20049;-64
2021/12/11 09:41:33;;;;;;;73.53;32.92;;;;;;;;;;5034470;28;20489;-64
2021/12/11 09:44:17;;;;;;;67.80;32.13;;;;;;;;;;5033590;28;20088;-63
2021/12/11 09:46:46;;;;;;;63.13;31.27;;;;;;;;;;5034518;28;20114;-64
2021/12/11 09:49:14;;;;;;;77.90;33.28;;;;;;;;;;5034512;28;20071;-64
2021/12/11 09:51:45;;;;;;;70.80;32.75;;;;;;;;;;5034473;28;20041;-64
2021/12/11 09:54:19;;;;;;;67.25;32.13;;;;;;;;;;5016636;28;20631;-64
2021/12/11 09:56:48;;;;;;;68.93;31.98;;;;;;;;;;5032946;28;20132;-64
2021/12/11 09:59:16;;;;;;;73.57;34.15;;;;;;;;;;5034358;28;20520;-64
2021/12/11 10:01:46;;;;;;;66.95;31.60;;;1.30;99.90;;;;;;5034185;28;20405;-64
2021/12/11 10:04:38;;;;;;;60.85;30.60;;;;;;;;;;5034299;28;20059;-63
2021/12/11 10:09:36;;;;;;;65.78;28.98;;;;;;;;;;5034128;28;20056;-64
2021/12/11 10:12:14;;;;;;;65.05;29.42;;;;;;;;;;5033733;28;20103;-64
2021/12/11 10:14:43;;;;;;;58.63;28.17;;;;;;;;;;5032821;28;20055;-64
2021/12/11 10:17:15;;;;;;;56.03;29.15;;;;;;;;;;5033666;28;20478;-65
2021/12/11 10:19:42;;;;;;;53.78;27.50;;;;;;;;;;5032905;28;20056;-64
2021/12/11 10:22:11;;;;;;;47.22;26.70;;;;;;;;;;5027967;28;20130;-64
2021/12/11 10:24:38;;;;;;;48.35;26.35;;;;;;;;;;5049233;28;20397;-65
2021/12/11 10:27:06;;;;;;;;;;;1.50;99.90;;;;;;5048917;28;20114;-64
2021/12/11 10:29:33;;;;;;;49.00;25.38;;;;;;;;;;5043396;28;19940;-66
2021/12/11 10:32:00;;;;;;;;;;;1.90;99.90;;;;;;5049652;28;20049;-65
2021/12/11 10:34:30;;;;;;;40.88;22.65;;;;;;;;;;5043693;28;20351;-65
2021/12/11 10:36:59;;;;;;;40.03;24.55;;;;;;;;;;5048319;28;20065;-64
2021/12/11 10:39:26;;;;;;;43.20;25.42;;;;;;;;;;5044625;28;20063;-66
2021/12/11 10:41:52;;;;;;;46.20;25.25;;;2.10;99.90;;;;;;5047381;28;20504;-64
2021/12/11 10:44:26;;;;;;;42.67;25.08;;;;;;;;;;5044274;28;20045;-65
2021/12/11 10:46:59;;;;;;;46.97;26.30;;;;;;;;;;5047792;28;20496;-68
2021/12/11 10:49:25;;;;;;;49.83;26.45;;;;;;;;;;5034560;28;20053;-65
2021/12/11 10:51:53;;;;;;;;;;;1.70;99.90;;;;;;5048768;28;20084;-64
2021/12/11 10:54:20;;;;;;;42.33;24.77;;;;;;;;;;5042461;28;19928;-65
2021/12/11 10:56:47;;;;;;;45.20;25.58;;;1.70;99.90;;;;;;5048747;28;20068;-64
2021/12/11 10:59:16;;;;;;;48.42;25.67;;;;;;;;;;5040694;28;20053;-66
2021/12/11 11:02:12;;;;;;;52.72;27.08;;;;;;;;;;5043867;28;20060;-65
2021/12/11 11:04:46;;;;;;;49.08;26.92;;;;;;;;;;5030476;28;20053;-64
2021/12/11 11:07:12;;;;;;;54.97;27.52;;;;;;;;;;5033105;28;20041;-65
2021/12/11 11:09:38;;;;;;;56.92;28.67;;;;;;;;;;5025907;28;20125;-67
2021/12/11 11:12:11;;;;;;;51.33;27.08;;;2.20;99.90;;;;;;5012100;28;20054;-65
2021/12/11 11:14:37;;;;;;;67.95;27.48;;;;;;;;;;5011823;28;20049;-64
2021/12/11 11:17:07;;;;;;;58.10;27.27;;;;;;;;;;5013144;28;20050;-65
2021/12/11 11:19:34;;;;;;;49.78;27.35;;;;;;;;;;5013240;28;20140;-65
2021/12/11 11:22:04;;;;;;;51.38;27.00;;;2.50;99.90;;;;;;5012855;28;20049;-65
2021/12/11 11:24:33;;;;;;;48.72;25.95;;;;;;;;;;5011554;28;20100;-65
2021/12/11 11:27:00;;;;;;;55.33;28.13;;;;;;;;;;5013029;28;20088;-65
2021/12/11 11:29:26;;;;;;;;;;;;;;;;;;5012052;28;20490;-65
2021/12/11 11:31:59;;;;;;;53.70;26.48;;;2.50;99.90;;;;;;5012955;28;19929;-65
2021/12/11 11:34:26;;;;;;;54.33;25.95;;;2.50;99.90;;;;;;5013044;28;20041;-65
2021/12/11 11:36:53;;;;;;;46.92;25.20;;;;;;;;;;5011523;28;20058;-67
2021/12/11 11:39:21;;;;;;;48.15;26.02;;;;;;;;;;5012702;28;20050;-66
2021/12/11 11:41:58;;;;;;;54.53;27.27;;;;;;;;;;5012852;28;20136;-66
2021/12/11 11:44:24;;;;;;;;;;;2.30;99.90;;;;;;5012353;28;20120;-66
2021/12/11 11:46:53;;;;;;;53.92;25.60;;;2.80;99.90;;;;;;5012619;28;20300;-66
2021/12/11 11:49:22;;;;;;;47.47;25.67;;;;;;;;;;5012864;28;20053;-66
2021/12/11 11:51:52;;;;;;;50.05;27.67;;;;;;;;;;5013408;28;20136;-65
2021/12/11 11:54:21;;;;;;;55.42;28.05;;;;;;;;;;5015464;28;20508;-65
2021/12/11 11:56:52;;;;;;;46.45;26.50;;;3.20;99.90;;;;;;5016650;28;20046;-66
2021/12/11 11:59:18;;;;;;;49.97;26.83;;;;;;;;;;5016768;28;20050;-66
2021/12/11 12:01:51;;;;;;;54.97;27.38;;;2.90;99.90;;;;;;5016692;28;20132;-67
2021/12/11 12:04:19;;;;;;;48.92;24.77;;;;;;;;;;5016702;28;20096;-66
2021/12/11 12:06:48;;;;;;;47.80;26.00;;;;;;;;;;5016374;28;20041;-66
2021/12/11 12:09:15;;;;;;;54.47;28.45;;;;;;;;;;5016582;28;20136;-66
2021/12/11 12:11:41;;;;;;;58.97;30.10;;;;;;;;;;5016618;28;20076;-65
2021/12/11 12:14:09;;;;;;;;;;;3.10;99.90;;;;;;5016961;28;20132;-66
2021/12/11 12:16:36;;;;;;;58.28;30.42;;;;;;;;;;5015314;28;19922;-65
2021/12/11 12:19:03;;;;;;;58.42;28.73;;;3.00;99.90;;;;;;5016401;28;20394;-66
2021/12/11 12:21:30;;;;;;;54.95;27.20;;;;;;;;;;5018726;28;20049;-66
2021/12/11 12:23:55;;;;;;;56.85;29.85;;;3.60;99.90;;;;;;5016294;28;20043;-66
2021/12/11 12:26:24;;;;;;;48.22;25.77;;;3.20;99.90;;;;;;5016332;28;20521;-66
2021/12/11 12:28:52;;;;;;;51.55;25.23;;;;;;;;;;5016274;28;20049;-66
2021/12/11 12:31:20;;;;;;;50.42;26.00;;;;;;;;;;5016199;28;20073;-66
2021/12/11 12:33:47;;;;;;;48.72;24.75;;;;;;;;;;5016082;28;20104;-67
2021/12/11 12:36:13;;;;;;;;;;;2.70;99.90;;;;;;5016100;28;20179;-66
2021/12/11 12:38:40;;;;;;;46.28;23.98;;;;;;;;;;5015650;28;19944;-67
2021/12/11 12:41:09;;;;;;;53.03;25.02;;;;;;;;;;5015941;28;20121;-67
2021/12/11 12:46:15;;;;;;;47.28;25.13;;;2.70;99.90;;;;;;5016061;28;20370;-66
2021/12/11 12:48:42;;;;;;;48.22;24.73;;;;;;;;;;5015883;28;20054;-67
2021/12/11 12:51:09;;;;;;;;;;;3.20;99.90;;;;;;5014693;28;20478;-66
2021/12/11 12:53:35;;;;;;;48.08;24.85;;;;;;;;;;5015845;28;19932;-67
2021/12/11 12:56:05;;;;;;;44.25;23.40;;;;;;;;;;5015681;28;20100;-67
2021/12/11 12:58:53;;;;;;;40.25;21.23;;;4.00;99.90;;;;;;5015691;28;20042;-66
2021/12/11 13:01:28;;;;;;;38.72;20.85;;;;;;;;;;5015751;28;20050;-67
2021/12/11 13:03:56;;;;;;;36.45;20.08;;;4.90;99.90;;;;;;5014905;28;20056;-67
2021/12/11 13:06:28;;;;;;;35.60;19.95;;;;;;;;;;5015283;28;20112;-66
2021/12/11 13:09:12;;;;;;;40.33;20.83;;;4.60;99.90;;;;;;5015515;28;20053;-68
2021/12/11 13:11:46;;;;;;;34.60;20.70;;;;;;;;;;5015540;28;20129;-66
2021/12/11 13:14:11;;;;;;;33.35;18.85;;;5.00;99.90;;;;;;5014494;28;20057;-66
2021/12/11 13:16:39;;;;;;;34.92;18.70;;;;;;;;;;4997802;28;20390;-66
2021/12/11 13:19:28;;;;;;;40.67;19.27;;;5.00;99.90;;;;;;5015059;28;20143;-67
2021/12/11 13:22:16;;;;;;;33.28;18.52;;;;;;;;;;5015350;28;20046;-66
2021/12/11 13:24:48;;;;;;;31.98;18.60;;;4.70;99.90;;;;;;5015288;28;20143;-66
2021/12/11 13:27:15;;;;;;;38.63;19.05;;;5.00;99.90;;;;;;5014937;28;20693;-67
2021/12/11 13:29:43;;;;;;;36.67;19.75;;;;;;;;;;5015184;28;20056;-66
2021/12/11 13:32:16;;;;;;;37.97;20.60;;;4.40;99.90;;;;;;5015331;28;20427;-66
2021/12/11 13:34:44;;;;;;;40.08;21.55;;;4.20;99.90;;;;;;5014832;28;20041;-66
2021/12/11 13:37:12;;;;;;;36.53;21.35;;;4.40;99.90;;;;;;5013523;28;20128;-67
2021/12/11 13:39:41;;;;;;;44.30;22.60;;;3.80;99.90;;;;;;5013945;28;20409;-66
2021/12/11 13:42:09;;;;;;;46.42;23.48;;;;;;;;;;5014860;28;20128;-66
2021/12/11 13:44:39;;;;;;;46.72;24.75;;;3.60;99.90;;;;;;5014834;28;20137;-67
2021/12/11 13:47:10;;;;;;;49.53;24.25;;;3.60;99.90;;;;;;5014871;28;20414;-67
2021/12/11 13:49:36;;;;;;;46.72;24.23;;;;;;;;;;5014550;28;20102;-66
2021/12/11 13:52:03;;;;;;;46.60;23.50;;;;;;;;;;5032970;28;20563;-66
2021/12/11 13:54:29;;;;;;;51.50;25.05;;;3.50;99.90;;;;;;5026777;28;20042;-66
2021/12/11 13:57:00;;;;;;;45.40;22.23;;;;;;;;;;5017418;28;20053;-65
2021/12/11 13:59:27;;;;;;;47.17;24.02;;;;;;;;;;5032857;28;20460;-65
2021/12/11 14:01:54;;;;;;;50.83;24.55;;;;;;;;;;5019871;28;20057;-67
2021/12/11 14:04:22;;;;;;;43.80;23.23;;;3.10;99.90;;;;;;5031073;28;20111;-68
2021/12/11 14:06:58;;;;;;;52.55;24.17;;;;;;;;;;5024669;28;20453;-65
2021/12/11 14:09:26;;;;;;;53.70;25.05;;;;;;;;;;5013258;28;20089;-66
2021/12/11 14:11:52;;;;;;;54.25;25.70;;;;;;;;;;5014074;28;20049;-66
2021/12/11 14:14:20;;;;;;;56.90;27.58;;;3.40;99.90;;;;;;5014134;28;20053;-67
2021/12/11 14:16:47;;;;;;;56.42;27.23;;;;;;;;;;5012931;28;20050;-66
2021/12/11 14:19:14;;;;;;;56.60;26.75;;;;;;;;;;5023203;28;20406;-67
2021/12/11 14:21:40;;;;;;;60.28;27.63;;;3.10;99.90;;;;;;5033748;28;20060;-68
2021/12/11 14:24:07;;;;;;;61.33;27.02;;;;;;;;;;5033545;28;20053;-66
2021/12/11 14:26:35;;;;;;;56.78;27.02;;;3.40;99.90;;;;;;5032387;28;20049;-65
2021/12/11 14:29:03;;;;;;;59.78;28.00;;;;;;;;;;5033560;28;20056;-66
2021/12/11 14:31:29;;;;;;;67.68;28.33;;;;;;;;;;5033281;28;20041;-66
2021/12/11 14:33:55;;;;;;;55.90;26.77;;;;;;;;;;5033321;28;20115;-66
2021/12/11 14:36:23;;;;;;;61.35;29.00;;;;;;;;;;5033302;28;20389;-67
2021/12/11 14:38:51;;;;;;;65.20;28.25;;;;;;;;;;5032984;28;20065;-67
2021/12/11 14:41:18;;;;;;;67.80;29.48;;;3.10;99.90;;;;;;5033204;28;20053;-65
2021/12/11 14:43:44;;;;;;;67.28;29.83;;;;;;;;;;5033237;28;20119;-66